Meteo Giornale » Osservazioni meteo Germania » Noervenich
ore: 20:20 - Osservazioni Meteo Noervenich
Lat. 50° 50' N Lon. 6° 40' E Alt. 118 metri s.l.m.
19 °C
Nuvoloso
Temp. 24 Ore
15 °C
22 °C
Nord
5.5 Km/h
Dew point 12 °C
Umidità 63 %
Visibilità 10 Km
Il sole sorge alle ore 06:47
Il sole tramonta alle ore 20:19
| Data e Ora | Cielo e Fenomeni | T °C | DP °C | Um. % | Pres. hPa | Vis. km | Vento km/h | |
|---|---|---|---|---|---|---|---|---|
| Oggi h: 20:20 | Nuvoloso | 19 | 12 | 63 | 1020 | 10 | N 5.5 | |
| Oggi h: 19:20 | Nuvoloso | 21 | 12 | 56 | 1020 | 10 | O 11.1 | |
| Oggi h: 18:20 | Nuvoloso | 21 | 12 | 56 | 1020 | 10 | O 14.8 | |
| Oggi h: 17:20 | Nuvoloso | 22 | 12 | 53 | 1020 | 10 | O/SO 22.2 | |
| Oggi h: 17:00 | Molto Nuvoloso | 21 | 13 | 60 | 1020 | 10 | O 16.7 | |
| Oggi h: 16:20 | Molto Nuvoloso | 22 | 13 | 56 | 1020 | 10 | O 18.5 | |
| Oggi h: 15:20 | Molto Nuvoloso | 20 | 14 | 68 | 1020 | 10 | O 22.2 | |
| Oggi h: 14:20 | Molto Nuvoloso | 20 | 14 | 68 | 1020 | 10 | O 16.7 | |
| Oggi h: 13:20 | Nuvoloso | 21 | 13 | 60 | 1020 | 10 | O/SO 22.2 | |
| Oggi h: 12:22 | Nuvoloso | 20 | 14 | 68 | 1020 | 10 | O/SO 25.9 | |
| Oggi h: 12:20 | Nuvoloso | 20 | 14 | 68 | 1020 | 10 | O 25.9 | |
| Oggi h: 11:20 | Molto Nuvoloso | 19 | 14 | 72 | 1020 | 10 | O 20.3 | |
| Oggi h: 10:52 | Molto Nuvoloso | 19 | 14 | 72 | 1020 | 10 | O 14.8 | |
| Oggi h: 10:20 | Molto Nuvoloso | 18 | 14 | 77 | 1020 | 10 | O/SO 16.7 | |
| Oggi h: 09:20 | Molto Nuvoloso | 18 | 14 | 77 | 1020 | 10 | O/SO 14.8 | |
| Oggi h: 08:20 | Molto Nuvoloso | 16 | 13 | 82 | 1020 | 10 | S/SO 7.4 | |
| Oggi h: 07:20 | Molto Nuvoloso | 15 | 13 | 87 | 1019 | 10 | S/SO 9.3 | |
| Oggi h: 06:20 | Molto Nuvoloso | 15 | 13 | 87 | 1018 | 10 | S/SO 9.3 | |
| Oggi h: 05:20 | Nuvoloso | 15 | 13 | 87 | 1018 | 10 | SO 9.3 | |
| Oggi h: 04:20 | Nuvoloso | 16 | 13 | 82 | 1018 | 10 | SO 9.3 | |
| Oggi h: 03:20 | Nuvoloso | 16 | 13 | 82 | 1018 | 10 | O/SO 16.7 | |
| Oggi h: 02:20 | Poco Nuvoloso | 16 | 13 | 82 | 1018 | 10 | O/SO 16.7 | |
| Oggi h: 01:20 | Poco Nuvoloso | 16 | 13 | 82 | 1018 | 10 | O/SO 16.7 | |
| Oggi h: 00:20 | Poco Nuvoloso | 17 | 14 | 82 | 1018 | 10 | SO 18.5 | |
| Ieri h: 23:20 | Nuvoloso | 16 | 13 | 82 | 1018 | 10 | SO 11.1 | |
| Ieri h: 22:20 | Poco Nuvoloso | 17 | 13 | 77 | 1017 | 10 | SO 14.8 | |
| Ieri h: 21:20 | Poco Nuvoloso | 17 | 13 | 77 | 1016 | 10 | SO 18.5 | |



